sensor_id;sensor_type;location;lat;lon;timestamp;temperature;humidity
71514;DHT22;59335;46.652;21.272;2024-03-22T00:02:15;24.19;32.33
71514;DHT22;59335;46.652;21.272;2024-03-22T00:05:17;24.21;32.35
71514;DHT22;59335;46.652;21.272;2024-03-22T00:08:18;24.21;32.40
71514;DHT22;59335;46.652;21.272;2024-03-22T00:11:20;24.19;32.35
71514;DHT22;59335;46.652;21.272;2024-03-22T00:14:22;24.18;32.36
71514;DHT22;59335;46.652;21.272;2024-03-22T00:17:24;24.18;32.36
71514;DHT22;59335;46.652;21.272;2024-03-22T00:20:26;24.17;32.28
71514;DHT22;59335;46.652;21.272;2024-03-22T00:23:28;24.18;32.27
71514;DHT22;59335;46.652;21.272;2024-03-22T00:26:31;24.18;32.33
71514;DHT22;59335;46.652;21.272;2024-03-22T00:29:32;24.19;32.28
71514;DHT22;59335;46.652;21.272;2024-03-22T00:32:34;24.18;32.24
71514;DHT22;59335;46.652;21.272;2024-03-22T00:35:37;24.17;32.28
71514;DHT22;59335;46.652;21.272;2024-03-22T00:38:39;24.18;32.24
71514;DHT22;59335;46.652;21.272;2024-03-22T00:41:41;24.17;32.29
71514;DHT22;59335;46.652;21.272;2024-03-22T00:44:42;24.14;32.25
71514;DHT22;59335;46.652;21.272;2024-03-22T00:47:44;24.17;32.26
71514;DHT22;59335;46.652;21.272;2024-03-22T00:50:46;24.17;32.25
71514;DHT22;59335;46.652;21.272;2024-03-22T00:53:48;24.17;32.20
71514;DHT22;59335;46.652;21.272;2024-03-22T00:56:49;24.15;32.24
71514;DHT22;59335;46.652;21.272;2024-03-22T00:59:51;24.17;32.19
71514;DHT22;59335;46.652;21.272;2024-03-22T01:02:53;24.17;32.20
71514;DHT22;59335;46.652;21.272;2024-03-22T01:05:55;24.14;32.17
71514;DHT22;59335;46.652;21.272;2024-03-22T01:08:59;24.18;32.10
71514;DHT22;59335;46.652;21.272;2024-03-22T01:12:00;24.15;32.11
71514;DHT22;59335;46.652;21.272;2024-03-22T01:15:03;24.17;32.04
71514;DHT22;59335;46.652;21.272;2024-03-22T01:18:05;24.17;32.05
71514;DHT22;59335;46.652;21.272;2024-03-22T01:21:07;24.14;32.04
71514;DHT22;59335;46.652;21.272;2024-03-22T01:24:09;24.14;32.04
71514;DHT22;59335;46.652;21.272;2024-03-22T01:27:11;24.15;32.07
71514;DHT22;59335;46.652;21.272;2024-03-22T01:30:13;24.11;32.07
71514;DHT22;59335;46.652;21.272;2024-03-22T01:33:16;24.12;32.04
71514;DHT22;59335;46.652;21.272;2024-03-22T01:36:18;24.12;31.97
71514;DHT22;59335;46.652;21.272;2024-03-22T01:39:21;24.11;32.07
71514;DHT22;59335;46.652;21.272;2024-03-22T01:42:23;24.12;32.03
71514;DHT22;59335;46.652;21.272;2024-03-22T01:45:25;24.11;32.06
71514;DHT22;59335;46.652;21.272;2024-03-22T01:48:27;24.11;32.06
71514;DHT22;59335;46.652;21.272;2024-03-22T01:51:29;24.11;32.05
71514;DHT22;59335;46.652;21.272;2024-03-22T01:54:30;24.09;32.02
71514;DHT22;59335;46.652;21.272;2024-03-22T01:57:33;24.09;31.96
71514;DHT22;59335;46.652;21.272;2024-03-22T02:00:35;24.08;31.93
71514;DHT22;59335;46.652;21.272;2024-03-22T02:03:37;24.09;31.97
71514;DHT22;59335;46.652;21.272;2024-03-22T02:06:39;24.09;31.96
71514;DHT22;59335;46.652;21.272;2024-03-22T02:09:41;24.08;31.97
71514;DHT22;59335;46.652;21.272;2024-03-22T02:12:43;24.08;31.91
71514;DHT22;59335;46.652;21.272;2024-03-22T02:15:45;24.09;31.85
71514;DHT22;59335;46.652;21.272;2024-03-22T02:18:47;24.08;31.89
71514;DHT22;59335;46.652;21.272;2024-03-22T02:21:49;24.09;31.87
71514;DHT22;59335;46.652;21.272;2024-03-22T02:24:51;24.08;31.89
71514;DHT22;59335;46.652;21.272;2024-03-22T02:27:53;24.07;31.89
71514;DHT22;59335;46.652;21.272;2024-03-22T02:30:55;24.08;31.88
71514;DHT22;59335;46.652;21.272;2024-03-22T02:33:57;24.07;31.86
71514;DHT22;59335;46.652;21.272;2024-03-22T02:36:59;24.08;31.89
71514;DHT22;59335;46.652;21.272;2024-03-22T02:40:00;24.08;31.80
71514;DHT22;59335;46.652;21.272;2024-03-22T02:43:02;24.05;31.63
71514;DHT22;59335;46.652;21.272;2024-03-22T02:46:04;24.04;31.73
71514;DHT22;59335;46.652;21.272;2024-03-22T02:49:06;24.07;31.71
71514;DHT22;59335;46.652;21.272;2024-03-22T02:52:08;24.07;31.66
71514;DHT22;59335;46.652;21.272;2024-03-22T02:55:09;24.05;31.69
71514;DHT22;59335;46.652;21.272;2024-03-22T02:58:11;24.04;31.60
71514;DHT22;59335;46.652;21.272;2024-03-22T03:01:13;24.04;31.60
71514;DHT22;59335;46.652;21.272;2024-03-22T03:04:15;24.04;31.63
71514;DHT22;59335;46.652;21.272;2024-03-22T03:07:17;24.07;31.61
71514;DHT22;59335;46.652;21.272;2024-03-22T03:10:19;24.05;31.62
71514;DHT22;59335;46.652;21.272;2024-03-22T03:13:20;24.02;31.51
71514;DHT22;59335;46.652;21.272;2024-03-22T03:16:22;24.05;31.51
71514;DHT22;59335;46.652;21.272;2024-03-22T03:19:24;24.02;31.59
71514;DHT22;59335;46.652;21.272;2024-03-22T03:22:26;24.01;31.59
71514;DHT22;59335;46.652;21.272;2024-03-22T03:25:28;24.02;31.46
71514;DHT22;59335;46.652;21.272;2024-03-22T03:28:30;24.01;31.60
71514;DHT22;59335;46.652;21.272;2024-03-22T03:31:31;24.01;31.53
71514;DHT22;59335;46.652;21.272;2024-03-22T03:34:35;24.00;31.55
71514;DHT22;59335;46.652;21.272;2024-03-22T03:37:37;24.02;31.54
71514;DHT22;59335;46.652;21.272;2024-03-22T03:40:39;24.04;31.48
71514;DHT22;59335;46.652;21.272;2024-03-22T03:43:41;24.04;31.51
71514;DHT22;59335;46.652;21.272;2024-03-22T03:46:43;24.01;31.49
71514;DHT22;59335;46.652;21.272;2024-03-22T03:49:45;24.01;31.55
71514;DHT22;59335;46.652;21.272;2024-03-22T03:52:47;24.02;31.54
71514;DHT22;59335;46.652;21.272;2024-03-22T03:55:49;24.04;31.48
71514;DHT22;59335;46.652;21.272;2024-03-22T03:58:51;24.02;31.45
71514;DHT22;59335;46.652;21.272;2024-03-22T04:01:53;24.01;31.53
71514;DHT22;59335;46.652;21.272;2024-03-22T04:04:54;23.98;31.51
71514;DHT22;59335;46.652;21.272;2024-03-22T04:07:56;24.01;31.46
71514;DHT22;59335;46.652;21.272;2024-03-22T04:10:58;24.00;31.49
71514;DHT22;59335;46.652;21.272;2024-03-22T04:14:00;23.98;31.40
71514;DHT22;59335;46.652;21.272;2024-03-22T04:17:02;24.00;31.40
71514;DHT22;59335;46.652;21.272;2024-03-22T04:20:04;24.00;31.42
71514;DHT22;59335;46.652;21.272;2024-03-22T04:23:06;23.98;31.40
71514;DHT22;59335;46.652;21.272;2024-03-22T04:26:07;24.00;31.29
71514;DHT22;59335;46.652;21.272;2024-03-22T04:29:09;23.98;31.34
71514;DHT22;59335;46.652;21.272;2024-03-22T04:32:11;24.00;31.26
71514;DHT22;59335;46.652;21.272;2024-03-22T04:35:13;24.00;31.31
71514;DHT22;59335;46.652;21.272;2024-03-22T04:38:15;23.98;31.34
71514;DHT22;59335;46.652;21.272;2024-03-22T04:41:17;24.00;31.29
71514;DHT22;59335;46.652;21.272;2024-03-22T04:44:19;24.00;31.28
71514;DHT22;59335;46.652;21.272;2024-03-22T04:47:20;24.00;31.28
71514;DHT22;59335;46.652;21.272;2024-03-22T04:50:22;23.96;31.24
71514;DHT22;59335;46.652;21.272;2024-03-22T04:53:24;24.00;31.19
71514;DHT22;59335;46.652;21.272;2024-03-22T04:56:26;24.00;31.16
71514;DHT22;59335;46.652;21.272;2024-03-22T04:59:28;24.02;31.19
71514;DHT22;59335;46.652;21.272;2024-03-22T05:02:30;24.04;31.08
71514;DHT22;59335;46.652;21.272;2024-03-22T05:05:32;24.05;31.02
71514;DHT22;59335;46.652;21.272;2024-03-22T05:08:34;24.07;31.05
71514;DHT22;59335;46.652;21.272;2024-03-22T05:11:35;24.05;31.01
71514;DHT22;59335;46.652;21.272;2024-03-22T05:14:37;24.07;31.01
71514;DHT22;59335;46.652;21.272;2024-03-22T05:17:39;24.04;31.01
71514;DHT22;59335;46.652;21.272;2024-03-22T05:20:42;24.04;31.01
71514;DHT22;59335;46.652;21.272;2024-03-22T05:23:44;24.05;30.98
71514;DHT22;59335;46.652;21.272;2024-03-22T05:26:46;24.04;30.93
71514;DHT22;59335;46.652;21.272;2024-03-22T05:29:48;24.05;30.85
71514;DHT22;59335;46.652;21.272;2024-03-22T05:32:49;24.04;30.93
71514;DHT22;59335;46.652;21.272;2024-03-22T05:35:52;24.04;30.98
71514;DHT22;59335;46.652;21.272;2024-03-22T05:38:54;24.05;30.98
71514;DHT22;59335;46.652;21.272;2024-03-22T05:41:58;24.05;31.10
71514;DHT22;59335;46.652;21.272;2024-03-22T05:44:59;24.02;31.05
71514;DHT22;59335;46.652;21.272;2024-03-22T05:48:01;24.05;31.09
71514;DHT22;59335;46.652;21.272;2024-03-22T05:51:03;24.04;31.04
71514;DHT22;59335;46.652;21.272;2024-03-22T05:54:05;24.04;31.02
71514;DHT22;59335;46.652;21.272;2024-03-22T05:57:08;24.08;31.04
71514;DHT22;59335;46.652;21.272;2024-03-22T06:00:10;24.04;31.04
71514;DHT22;59335;46.652;21.272;2024-03-22T06:03:13;24.01;31.00
71514;DHT22;59335;46.652;21.272;2024-03-22T06:06:15;24.02;31.16
71514;DHT22;59335;46.652;21.272;2024-03-22T06:09:17;24.05;31.10
71514;DHT22;59335;46.652;21.272;2024-03-22T06:12:26;24.05;31.08
71514;DHT22;59335;46.652;21.272;2024-03-22T06:15:28;23.98;31.20
71514;DHT22;59335;46.652;21.272;2024-03-22T06:18:30;24.04;31.21
71514;DHT22;59335;46.652;21.272;2024-03-22T06:21:32;24.01;31.35
71514;DHT22;59335;46.652;21.272;2024-03-22T06:24:35;24.02;31.37
71514;DHT22;59335;46.652;21.272;2024-03-22T06:27:38;24.04;31.46
71514;DHT22;59335;46.652;21.272;2024-03-22T06:30:40;24.07;31.54
71514;DHT22;59335;46.652;21.272;2024-03-22T06:33:42;24.05;31.64
71514;DHT22;59335;46.652;21.272;2024-03-22T06:36:44;24.09;31.66
71514;DHT22;59335;46.652;21.272;2024-03-22T06:39:46;24.09;31.71
71514;DHT22;59335;46.652;21.272;2024-03-22T06:42:48;24.17;31.90
71514;DHT22;59335;46.652;21.272;2024-03-22T06:45:50;24.19;31.97
71514;DHT22;59335;46.652;21.272;2024-03-22T06:48:53;24.24;32.27
71514;DHT22;59335;46.652;21.272;2024-03-22T06:51:56;24.28;32.20
71514;DHT22;59335;46.652;21.272;2024-03-22T06:54:58;24.35;32.39
71514;DHT22;59335;46.652;21.272;2024-03-22T06:58:01;24.40;32.35
71514;DHT22;59335;46.652;21.272;2024-03-22T07:01:06;24.45;32.63
71514;DHT22;59335;46.652;21.272;2024-03-22T07:04:08;24.45;32.96
71514;DHT22;59335;46.652;21.272;2024-03-22T07:07:16;24.46;32.95
71514;DHT22;59335;46.652;21.272;2024-03-22T07:10:19;24.48;33.04
71514;DHT22;59335;46.652;21.272;2024-03-22T07:13:21;24.46;33.04
71514;DHT22;59335;46.652;21.272;2024-03-22T07:16:22;24.46;33.05
71514;DHT22;59335;46.652;21.272;2024-03-22T07:19:25;24.46;33.02
71514;DHT22;59335;46.652;21.272;2024-03-22T07:22:28;24.49;33.05
71514;DHT22;59335;46.652;21.272;2024-03-22T07:25:30;24.48;33.13
71514;DHT22;59335;46.652;21.272;2024-03-22T07:28:32;24.49;33.15
71514;DHT22;59335;46.652;21.272;2024-03-22T07:31:33;24.53;33.13
71514;DHT22;59335;46.652;21.272;2024-03-22T07:34:38;24.52;33.17
71514;DHT22;59335;46.652;21.272;2024-03-22T07:37:41;24.51;33.20
71514;DHT22;59335;46.652;21.272;2024-03-22T07:40:45;24.53;33.23
71514;DHT22;59335;46.652;21.272;2024-03-22T07:43:46;24.55;33.29
71514;DHT22;59335;46.652;21.272;2024-03-22T07:46:48;24.53;33.29
71514;DHT22;59335;46.652;21.272;2024-03-22T07:49:51;24.53;33.46
71514;DHT22;59335;46.652;21.272;2024-03-22T07:52:53;24.63;33.67
71514;DHT22;59335;46.652;21.272;2024-03-22T07:55:55;24.65;33.99
71514;DHT22;59335;46.652;21.272;2024-03-22T07:58:56;24.70;34.33
71514;DHT22;59335;46.652;21.272;2024-03-22T08:01:58;24.72;34.64
71514;DHT22;59335;46.652;21.272;2024-03-22T08:05:01;24.76;34.61
71514;DHT22;59335;46.652;21.272;2024-03-22T08:08:04;24.79;34.56
71514;DHT22;59335;46.652;21.272;2024-03-22T08:11:07;24.79;34.66
71514;DHT22;59335;46.652;21.272;2024-03-22T08:14:11;24.80;34.63
71514;DHT22;59335;46.652;21.272;2024-03-22T08:17:13;24.82;34.84
71514;DHT22;59335;46.652;21.272;2024-03-22T08:20:16;24.83;34.68
71514;DHT22;59335;46.652;21.272;2024-03-22T08:23:18;24.84;34.66
71514;DHT22;59335;46.652;21.272;2024-03-22T08:26:21;24.87;34.72
71514;DHT22;59335;46.652;21.272;2024-03-22T08:29:24;24.88;34.79
71514;DHT22;59335;46.652;21.272;2024-03-22T08:32:26;24.86;34.81
71514;DHT22;59335;46.652;21.272;2024-03-22T08:35:27;24.90;34.80
71514;DHT22;59335;46.652;21.272;2024-03-22T08:38:30;24.90;34.94
71514;DHT22;59335;46.652;21.272;2024-03-22T08:41:33;24.91;34.95
71514;DHT22;59335;46.652;21.272;2024-03-22T08:44:36;24.90;35.02
71514;DHT22;59335;46.652;21.272;2024-03-22T08:47:38;24.86;35.27
71514;DHT22;59335;46.652;21.272;2024-03-22T08:50:44;24.86;35.33
71514;DHT22;59335;46.652;21.272;2024-03-22T08:53:45;24.90;35.63
71514;DHT22;59335;46.652;21.272;2024-03-22T08:56:47;24.90;35.78
71514;DHT22;59335;46.652;21.272;2024-03-22T08:59:50;24.91;36.08
71514;DHT22;59335;46.652;21.272;2024-03-22T09:02:53;24.88;35.13
71514;DHT22;59335;46.652;21.272;2024-03-22T09:05:59;24.69;32.49
71514;DHT22;59335;46.652;21.272;2024-03-22T09:09:01;24.48;31.06
71514;DHT22;59335;46.652;21.272;2024-03-22T09:12:04;24.51;33.75
71514;DHT22;59335;46.652;21.272;2024-03-22T09:15:07;24.51;33.88
71514;DHT22;59335;46.652;21.272;2024-03-22T09:18:09;24.55;33.71
71514;DHT22;59335;46.652;21.272;2024-03-22T09:21:13;24.60;33.60
71514;DHT22;59335;46.652;21.272;2024-03-22T09:24:14;24.62;33.52
71514;DHT22;59335;46.652;21.272;2024-03-22T09:27:16;24.60;33.54
71514;DHT22;59335;46.652;21.272;2024-03-22T09:30:19;24.65;33.53
71514;DHT22;59335;46.652;21.272;2024-03-22T09:33:26;24.66;33.63
71514;DHT22;59335;46.652;21.272;2024-03-22T09:36:31;24.69;33.71
71514;DHT22;59335;46.652;21.272;2024-03-22T09:39:36;24.69;34.01
71514;DHT22;59335;46.652;21.272;2024-03-22T09:42:43;24.70;33.93
71514;DHT22;59335;46.652;21.272;2024-03-22T09:45:47;24.76;34.09
71514;DHT22;59335;46.652;21.272;2024-03-22T09:48:52;24.73;34.12
71514;DHT22;59335;46.652;21.272;2024-03-22T09:51:54;24.74;34.26
71514;DHT22;59335;46.652;21.272;2024-03-22T09:54:57;24.76;34.36
71514;DHT22;59335;46.652;21.272;2024-03-22T09:57:59;24.77;34.56
71514;DHT22;59335;46.652;21.272;2024-03-22T10:01:02;24.77;34.69
71514;DHT22;59335;46.652;21.272;2024-03-22T10:04:06;24.84;34.86
71514;DHT22;59335;46.652;21.272;2024-03-22T10:07:08;24.87;34.96
71514;DHT22;59335;46.652;21.272;2024-03-22T10:10:13;24.86;35.00
71514;DHT22;59335;46.652;21.272;2024-03-22T10:13:20;24.87;35.04
71514;DHT22;59335;46.652;21.272;2024-03-22T10:16:22;24.86;35.17
71514;DHT22;59335;46.652;21.272;2024-03-22T10:19:24;24.88;35.37
71514;DHT22;59335;46.652;21.272;2024-03-22T10:22:26;24.88;35.37
71514;DHT22;59335;46.652;21.272;2024-03-22T10:25:28;24.90;35.37
71514;DHT22;59335;46.652;21.272;2024-03-22T10:28:30;24.94;35.39
71514;DHT22;59335;46.652;21.272;2024-03-22T10:31:35;24.94;35.43
71514;DHT22;59335;46.652;21.272;2024-03-22T10:34:38;24.94;35.38
71514;DHT22;59335;46.652;21.272;2024-03-22T10:37:46;24.93;35.38
71514;DHT22;59335;46.652;21.272;2024-03-22T10:40:50;24.95;35.44
71514;DHT22;59335;46.652;21.272;2024-03-22T10:43:52;24.94;35.45
71514;DHT22;59335;46.652;21.272;2024-03-22T10:46:55;24.97;35.60
71514;DHT22;59335;46.652;21.272;2024-03-22T10:50:05;24.90;33.81
71514;DHT22;59335;46.652;21.272;2024-03-22T10:53:16;24.90;34.89
71514;DHT22;59335;46.652;21.272;2024-03-22T10:56:19;24.80;33.69
71514;DHT22;59335;46.652;21.272;2024-03-22T10:59:23;24.69;31.84
71514;DHT22;59335;46.652;21.272;2024-03-22T11:02:27;24.57;31.33
71514;DHT22;59335;46.652;21.272;2024-03-22T11:05:32;24.56;31.72
71514;DHT22;59335;46.652;21.272;2024-03-22T11:09:04;24.45;31.54
71514;DHT22;59335;46.652;21.272;2024-03-22T11:12:15;24.46;29.71
71514;DHT22;59335;46.652;21.272;2024-03-22T11:15:21;24.38;29.12
71514;DHT22;59335;46.652;21.272;2024-03-22T11:18:23;23.98;28.22
71514;DHT22;59335;46.652;21.272;2024-03-22T11:21:25;24.01;28.50
71514;DHT22;59335;46.652;21.272;2024-03-22T11:24:27;24.04;29.09
71514;DHT22;59335;46.652;21.272;2024-03-22T11:27:32;23.84;28.16
71514;DHT22;59335;46.652;21.272;2024-03-22T11:30:34;23.88;28.24
71514;DHT22;59335;46.652;21.272;2024-03-22T11:33:37;23.87;28.39
71514;DHT22;59335;46.652;21.272;2024-03-22T11:36:39;23.70;28.80
71514;DHT22;59335;46.652;21.272;2024-03-22T11:39:42;23.74;27.85
71514;DHT22;59335;46.652;21.272;2024-03-22T11:42:50;23.61;28.24
71514;DHT22;59335;46.652;21.272;2024-03-22T11:45:55;23.75;28.63
71514;DHT22;59335;46.652;21.272;2024-03-22T11:48:56;23.57;28.02
71514;DHT22;59335;46.652;21.272;2024-03-22T11:52:00;23.67;28.25
71514;DHT22;59335;46.652;21.272;2024-03-22T11:55:04;23.69;28.30
71514;DHT22;59335;46.652;21.272;2024-03-22T11:58:09;23.73;27.92
71514;DHT22;59335;46.652;21.272;2024-03-22T12:01:12;23.81;28.49
71514;DHT22;59335;46.652;21.272;2024-03-22T12:04:16;23.67;27.52
71514;DHT22;59335;46.652;21.272;2024-03-22T12:07:18;23.69;27.62
71514;DHT22;59335;46.652;21.272;2024-03-22T12:10:21;23.82;29.39
71514;DHT22;59335;46.652;21.272;2024-03-22T12:13:24;23.87;29.02
71514;DHT22;59335;46.652;21.272;2024-03-22T12:16:27;24.00;29.59
71514;DHT22;59335;46.652;21.272;2024-03-22T12:19:29;23.94;27.47
71514;DHT22;59335;46.652;21.272;2024-03-22T12:22:42;24.01;27.72
71514;DHT22;59335;46.652;21.272;2024-03-22T12:25:47;24.01;29.21
71514;DHT22;59335;46.652;21.272;2024-03-22T12:28:50;24.02;28.97
71514;DHT22;59335;46.652;21.272;2024-03-22T12:31:52;24.05;28.54
71514;DHT22;59335;46.652;21.272;2024-03-22T12:34:54;24.05;28.80
71514;DHT22;59335;46.652;21.272;2024-03-22T12:37:59;23.96;27.85
71514;DHT22;59335;46.652;21.272;2024-03-22T12:41:04;23.96;27.20
71514;DHT22;59335;46.652;21.272;2024-03-22T12:44:07;23.90;26.62
71514;DHT22;59335;46.652;21.272;2024-03-22T12:47:10;23.98;29.12
71514;DHT22;59335;46.652;21.272;2024-03-22T12:50:11;24.04;28.77
71514;DHT22;59335;46.652;21.272;2024-03-22T12:53:16;24.05;28.77
71514;DHT22;59335;46.652;21.272;2024-03-22T12:56:18;23.87;26.95
71514;DHT22;59335;46.652;21.272;2024-03-22T12:59:22;23.82;27.19
71514;DHT22;59335;46.652;21.272;2024-03-22T13:02:24;23.75;26.80
71514;DHT22;59335;46.652;21.272;2024-03-22T13:05:30;23.75;27.21
71514;DHT22;59335;46.652;21.272;2024-03-22T13:08:32;23.78;27.09
71514;DHT22;59335;46.652;21.272;2024-03-22T13:11:40;23.84;27.57
71514;DHT22;59335;46.652;21.272;2024-03-22T13:14:42;23.88;27.96
71514;DHT22;59335;46.652;21.272;2024-03-22T13:17:45;23.85;27.31
71514;DHT22;59335;46.652;21.272;2024-03-22T13:20:48;23.84;27.55
71514;DHT22;59335;46.652;21.272;2024-03-22T13:23:50;23.80;26.97
71514;DHT22;59335;46.652;21.272;2024-03-22T13:26:52;23.60;25.86
71514;DHT22;59335;46.652;21.272;2024-03-22T13:29:57;23.49;25.90
71514;DHT22;59335;46.652;21.272;2024-03-22T13:33:00;23.59;26.07
71514;DHT22;59335;46.652;21.272;2024-03-22T13:36:02;23.67;27.60
71514;DHT22;59335;46.652;21.272;2024-03-22T13:39:08;23.78;28.37
71514;DHT22;59335;46.652;21.272;2024-03-22T13:42:11;23.87;28.53
71514;DHT22;59335;46.652;21.272;2024-03-22T13:45:15;23.93;28.66
71514;DHT22;59335;46.652;21.272;2024-03-22T13:48:17;24.00;28.67
71514;DHT22;59335;46.652;21.272;2024-03-22T13:51:21;24.05;28.74
71514;DHT22;59335;46.652;21.272;2024-03-22T13:54:23;24.09;28.76
71514;DHT22;59335;46.652;21.272;2024-03-22T13:57:25;24.12;28.79
71514;DHT22;59335;46.652;21.272;2024-03-22T14:00:27;24.15;28.85
71514;DHT22;59335;46.652;21.272;2024-03-22T14:03:29;24.18;28.87
71514;DHT22;59335;46.652;21.272;2024-03-22T14:06:31;24.18;29.00
71514;DHT22;59335;46.652;21.272;2024-03-22T14:09:34;24.21;29.11
71514;DHT22;59335;46.652;21.272;2024-03-22T14:12:37;24.22;29.16
71514;DHT22;59335;46.652;21.272;2024-03-22T14:15:39;24.21;29.26
71514;DHT22;59335;46.652;21.272;2024-03-22T14:18:42;24.21;29.35
71514;DHT22;59335;46.652;21.272;2024-03-22T14:21:43;24.24;29.39
71514;DHT22;59335;46.652;21.272;2024-03-22T14:24:45;24.25;29.39
71514;DHT22;59335;46.652;21.272;2024-03-22T14:27:47;24.26;29.45
71514;DHT22;59335;46.652;21.272;2024-03-22T14:30:50;24.28;29.46
71514;DHT22;59335;46.652;21.272;2024-03-22T14:33:52;24.28;29.59
71514;DHT22;59335;46.652;21.272;2024-03-22T14:36:54;24.30;29.53
71514;DHT22;59335;46.652;21.272;2024-03-22T14:39:56;24.29;29.66
71514;DHT22;59335;46.652;21.272;2024-03-22T14:42:57;24.29;29.74
71514;DHT22;59335;46.652;21.272;2024-03-22T14:46:00;24.30;29.70
71514;DHT22;59335;46.652;21.272;2024-03-22T14:49:02;24.30;29.78
71514;DHT22;59335;46.652;21.272;2024-03-22T14:52:08;24.30;29.81
71514;DHT22;59335;46.652;21.272;2024-03-22T14:55:13;24.33;29.75
71514;DHT22;59335;46.652;21.272;2024-03-22T14:58:18;24.35;29.84
71514;DHT22;59335;46.652;21.272;2024-03-22T15:01:20;24.33;29.89
71514;DHT22;59335;46.652;21.272;2024-03-22T15:04:24;24.32;29.98
71514;DHT22;59335;46.652;21.272;2024-03-22T15:07:26;24.30;30.03
71514;DHT22;59335;46.652;21.272;2024-03-22T15:10:28;24.33;30.03
71514;DHT22;59335;46.652;21.272;2024-03-22T15:13:30;24.33;30.04
71514;DHT22;59335;46.652;21.272;2024-03-22T15:16:32;24.32;30.09
71514;DHT22;59335;46.652;21.272;2024-03-22T15:19:41;24.33;30.16
71514;DHT22;59335;46.652;21.272;2024-03-22T15:22:46;24.32;30.15
71514;DHT22;59335;46.652;21.272;2024-03-22T15:25:49;24.35;30.24
71514;DHT22;59335;46.652;21.272;2024-03-22T15:28:51;24.35;30.27
71514;DHT22;59335;46.652;21.272;2024-03-22T15:31:54;24.36;30.33
71514;DHT22;59335;46.652;21.272;2024-03-22T15:35:01;24.35;30.41
71514;DHT22;59335;46.652;21.272;2024-03-22T15:38:04;24.36;30.50
71514;DHT22;59335;46.652;21.272;2024-03-22T15:41:08;24.36;30.50
71514;DHT22;59335;46.652;21.272;2024-03-22T15:44:11;24.35;30.65
71514;DHT22;59335;46.652;21.272;2024-03-22T15:47:14;24.33;31.00
71514;DHT22;59335;46.652;21.272;2024-03-22T15:50:15;24.35;31.44
71514;DHT22;59335;46.652;21.272;2024-03-22T15:53:17;24.35;31.71
71514;DHT22;59335;46.652;21.272;2024-03-22T15:56:19;24.33;32.04
71514;DHT22;59335;46.652;21.272;2024-03-22T15:59:20;24.30;32.16
71514;DHT22;59335;46.652;21.272;2024-03-22T16:02:30;24.30;31.90
71514;DHT22;59335;46.652;21.272;2024-03-22T16:05:32;24.32;32.32
71514;DHT22;59335;46.652;21.272;2024-03-22T16:08:35;24.30;32.58
71514;DHT22;59335;46.652;21.272;2024-03-22T16:11:37;24.29;32.46
71514;DHT22;59335;46.652;21.272;2024-03-22T16:14:41;24.29;32.55
71514;DHT22;59335;46.652;21.272;2024-03-22T16:17:43;24.29;32.40
71514;DHT22;59335;46.652;21.272;2024-03-22T16:20:44;24.26;32.50
71514;DHT22;59335;46.652;21.272;2024-03-22T16:23:46;24.25;32.55
71514;DHT22;59335;46.652;21.272;2024-03-22T16:26:48;24.24;32.59
71514;DHT22;59335;46.652;21.272;2024-03-22T16:29:49;24.22;32.57
71514;DHT22;59335;46.652;21.272;2024-03-22T16:32:51;24.22;32.53
71514;DHT22;59335;46.652;21.272;2024-03-22T16:35:53;24.21;32.51
71514;DHT22;59335;46.652;21.272;2024-03-22T16:38:55;24.22;32.50
71514;DHT22;59335;46.652;21.272;2024-03-22T16:41:56;24.19;32.47
71514;DHT22;59335;46.652;21.272;2024-03-22T16:44:58;24.17;32.47
71514;DHT22;59335;46.652;21.272;2024-03-22T16:48:00;24.18;32.42
71514;DHT22;59335;46.652;21.272;2024-03-22T16:51:03;24.19;32.39
71514;DHT22;59335;46.652;21.272;2024-03-22T16:54:06;24.18;32.40
71514;DHT22;59335;46.652;21.272;2024-03-22T16:57:09;24.19;32.37
71514;DHT22;59335;46.652;21.272;2024-03-22T17:00:11;24.17;32.33
71514;DHT22;59335;46.652;21.272;2024-03-22T17:03:13;24.18;32.34
71514;DHT22;59335;46.652;21.272;2024-03-22T17:06:15;24.18;32.29
71514;DHT22;59335;46.652;21.272;2024-03-22T17:09:17;24.17;32.30
71514;DHT22;59335;46.652;21.272;2024-03-22T17:12:18;24.15;32.34
71514;DHT22;59335;46.652;21.272;2024-03-22T17:15:20;24.15;32.28
71514;DHT22;59335;46.652;21.272;2024-03-22T17:18:22;24.18;32.28
71514;DHT22;59335;46.652;21.272;2024-03-22T17:21:25;24.17;32.34
71514;DHT22;59335;46.652;21.272;2024-03-22T17:24:26;24.15;32.29
71514;DHT22;59335;46.652;21.272;2024-03-22T17:27:28;24.17;32.28
71514;DHT22;59335;46.652;21.272;2024-03-22T17:30:30;24.15;32.23
71514;DHT22;59335;46.652;21.272;2024-03-22T17:33:32;24.14;32.29
71514;DHT22;59335;46.652;21.272;2024-03-22T17:36:35;24.18;32.27
71514;DHT22;59335;46.652;21.272;2024-03-22T17:39:37;24.15;32.24
71514;DHT22;59335;46.652;21.272;2024-03-22T17:42:38;24.15;32.20
71514;DHT22;59335;46.652;21.272;2024-03-22T17:45:40;24.15;32.25
71514;DHT22;59335;46.652;21.272;2024-03-22T17:48:42;24.14;32.20
71514;DHT22;59335;46.652;21.272;2024-03-22T17:51:43;24.14;32.20
71514;DHT22;59335;46.652;21.272;2024-03-22T17:54:45;24.14;32.20
71514;DHT22;59335;46.652;21.272;2024-03-22T17:57:47;24.14;32.17
71514;DHT22;59335;46.652;21.272;2024-03-22T18:00:48;24.15;32.25
71514;DHT22;59335;46.652;21.272;2024-03-22T18:03:50;24.14;32.20
71514;DHT22;59335;46.652;21.272;2024-03-22T18:06:53;24.14;32.26
71514;DHT22;59335;46.652;21.272;2024-03-22T18:09:54;24.14;32.26
71514;DHT22;59335;46.652;21.272;2024-03-22T18:12:56;24.12;32.25
71514;DHT22;59335;46.652;21.272;2024-03-22T18:15:58;24.14;32.28
71514;DHT22;59335;46.652;21.272;2024-03-22T18:19:00;24.15;32.19
71514;DHT22;59335;46.652;21.272;2024-03-22T18:22:02;24.15;32.23
71514;DHT22;59335;46.652;21.272;2024-03-22T18:25:05;24.15;32.25
71514;DHT22;59335;46.652;21.272;2024-03-22T18:28:07;24.14;32.28
71514;DHT22;59335;46.652;21.272;2024-03-22T18:31:09;24.11;32.23
71514;DHT22;59335;46.652;21.272;2024-03-22T18:34:11;24.12;32.19
71514;DHT22;59335;46.652;21.272;2024-03-22T18:37:15;24.11;32.22
71514;DHT22;59335;46.652;21.272;2024-03-22T18:40:17;24.12;32.18
71514;DHT22;59335;46.652;21.272;2024-03-22T18:43:19;24.11;32.19
71514;DHT22;59335;46.652;21.272;2024-03-22T18:46:21;24.12;32.20
71514;DHT22;59335;46.652;21.272;2024-03-22T18:49:23;24.12;32.19
71514;DHT22;59335;46.652;21.272;2024-03-22T18:52:25;24.11;32.22
71514;DHT22;59335;46.652;21.272;2024-03-22T18:55:26;24.12;32.17